Kuurne, Belgique

16:40 CEST le 24 octobre 2014 (GMT +0200)
IVLAAMSG8 | Change Station
CLOSE
Current Station
Stations météorologiques personnelles
Location: Izegem, West-Vlaanderen
Altitude: 59 ft
Stations météo à proximité

Alt. 59 ft 50.91 °N, 3.20 °E | Updated 4 seconds ago

Mostly Cloudy
Nuageux
54.1 ° F
Paraît 54.1 ° F
N
10.9
Vent Variable Vent de SSE
Gusts 10.9 mph

Aujourd'hui
Haut(e) -- | Bas -- ° F
--% Risque de précip.
Hier
Haut(e) -- | Bas -- ° F
Precip. -- pouce
8:24 AM 6:36 PM
Nouvelle lune, 1% visible
Pression 30.04 pouce
Visibilité 6.2 Miles terrestres
Nuages Nuageux 1100 ft
Point de rosée 50 ° F
Humidité 85%
Précipitations 0.04 pouce
Profondeur de la couche neigeuse Non disponible.
UV 0.0 sur 12
Pollen Non disponible.
Qualité de l'air Non disponible.
Flu Activity Non disponible.
METAR LFQQ 241430Z 18009KT 9999 BKN011 12/11 Q1017 TEMPO 5000 RA BKN008

More Conditions Fewer Conditions

Pression 30.04 pouce
Visibilité 6.2 Miles terrestres
Nuages Nuageux 1100 ft
Point de rosée 50 ° F
Humidité 85%
Précipitations 0.04 pouce
Profondeur de la couche neigeuse Non disponible.
UV 0.0 sur 12
Pollen Non disponible.
Qualité de l'air Non disponible.
Flu Activity Non disponible.
METAR LFQQ 241430Z 18009KT 9999 BKN011 12/11 Q1017 TEMPO 5000 RA BKN008

More Conditions Fewer Conditions

10-Day Weather Forecast

Almanac

Astronomie

Oct. 24, 2014 Lever Coucher
Temps réel 08:24 CEST 18:36 CEST
Crépuscule civil 07:50 CEST 19:10 CEST
Crépuscule nautique 07:12 CEST 19:48 CEST
Crépuscule astronomique 06:34 CEST 20:26 CEST
Lune 08:50 CEST 19:02 CEST
Durée de lumière visible 11h 19m
Longueur du jour
10h 11m
Tomorrow will be 3m 38s shorter.
Nouvelle lune, 1% of the Moon is Illuminated
Aujourd'hui
Nouvelle lune
Oct 30
Premier quartier
Nov 6
Pleine lune
Nov 14
Dernier quartier
Nov 22
Nouveau

Extrêmes aujourd'hui

Country Highs Country Lows

Community

WunderPhotos

Upload Photos

1,764,581 Photos téléchargées !

WunderBlogs® & News

Nearby

Qualité de l'air

Not available.

Épaisseur de neige

Not available.

Activité sismique

Ville Distance Mag. Time & Date
No recent earthquake activity has been reported nearby.
Minimum magnitude displayed is 2.5.

Températures des eaux côtières

Lieu Température
Aucun rapport de station

Stations météo à proximité